Cap-de-la-Madeleine, Canada
Current Conditions -  °F | °C
As of 2:00 PM on Monday 20 Oct 2014 (Local Time) from CYRQ Reporting Station
Overcast Overcast  
Wind Chill: 37°   Ceiling: 9000
Heat Index: 43°   Visibility: 9mi
Dew Point: 28°   Wind: 12mph
Humidity: 57%   Direction: 230°SW
Pressure: 29.9"   Gusts: NA
Location:  46.38°N, 72.55°W
Report Text: CYRQ 201800Z AUTO 23010KT 170V240 9SM OVC090 06/M02 A2990 RMK TS/LTNG TEMPO UNAVBL SLP129
Loading
Personal Weather Stations






























Interactive Weather Map
Tropical Storm Tracking
New forecast layout! Learn more

10-Day Weather Forecast

Advertisements
Track Severe Weather on mobile